Hovedside
METAR-TAF:

METAR-TAF

Lufthavner :

Tartu lufthavn

Tartu, Estland

breddegrad: 58-18N, lengdegrad: 026-44E, høyde over havet: 59 m

Gjeldene værobservasjon

Denne rapporten ble laget for 47 minutter siden, klokken 11:50 UTC
Vind 18 kt fra Vest med vindkast opp mot 28 kt, skiftende mellom Vest og Nordvest
Temperatur 4°C
Luftfuktighet 52%
Trykk 997 hPa
Sikt 10 km eller mer
Spredte skyer i en høyde av 4100 ft

METAR: EETU 241150Z 28018G28KT 260V320 9999 SCT041 04/M05 Q0997

Tid: 14:37 (12:37 UTC)

Varsel

Denne rapporten ble laget for 15 timer og 37 minutter siden, klokken 21:00 UTC
Varsel gyldig fra 23. klokken 22 UTC til 24. klokken 04 UTC
Vind 14 kt fra Vest
Sikt 10 km eller mer
Spredte skyer i en høyde av 1200 ft
Brutte skyer i en høyde av 4000 ft

TAF: EETU 232100Z 2322/2404 26014KT 9999 SCT012 BKN040

Værobservasjoner og værvarsel for over 4000 flyplasser (METAR- og TAF-rapporter).

Tilgjengelige stasjoner er representert av de røde og gule prikkene på kartet.

Hold musepekeren over prikken for å se navnet på stasjonen.

Klikk så for å se værobservasjoner og -varsler.

For å forandre kartet kan du klikke på den grønne knappen med svart kryss for å zoome inn, på den grønne knappen med strek for å zoome ut, eller på de grønne pilene for å se tilstøtende kart.


METAR-TAF: